createdAt,value
2017-10-12T00:00:55.376Z,100011.25
2017-10-12T00:03:21.599Z,100010.80
2017-10-12T00:05:47.840Z,100006.94
2017-10-12T00:08:14.076Z,100007.83
2017-10-12T00:10:40.314Z,100019.08
2017-10-12T00:13:06.578Z,100008.09
2017-10-12T00:15:32.868Z,100007.80
2017-10-12T00:17:59.188Z,100006.33
2017-10-12T00:20:25.415Z,100010.41
2017-10-12T00:22:51.644Z,100012.65
2017-10-12T00:25:17.880Z,100009.66
2017-10-12T00:27:44.106Z,100012.64
2017-10-12T00:30:10.338Z,100008.84
2017-10-12T00:32:36.570Z,100012.50
2017-10-12T00:35:02.796Z,100014.25
2017-10-12T00:37:29.024Z,100006.63
2017-10-12T00:39:55.249Z,100004.48
2017-10-12T00:42:21.491Z,100003.55
2017-10-12T00:44:47.726Z,100009.17
2017-10-12T00:47:13.947Z,100014.70
2017-10-12T00:49:40.159Z,100010.39
2017-10-12T00:52:06.388Z,100008.72
2017-10-12T00:54:32.633Z,100004.39
2017-10-12T00:56:58.879Z,100008.38
2017-10-12T00:59:25.119Z,100000.59
2017-10-12T01:01:51.329Z,99999.36
2017-10-12T01:04:17.534Z,99998.11
2017-10-12T01:06:43.783Z,99993.64
2017-10-12T01:09:10.010Z,99993.72
2017-10-12T01:11:36.350Z,99989.48
2017-10-12T01:14:02.593Z,99993.58
2017-10-12T01:16:28.833Z,99993.58
2017-10-12T01:18:55.135Z,99995.75
2017-10-12T01:21:21.350Z,99988.48
2017-10-12T01:23:47.580Z,99988.55
2017-10-12T01:26:13.853Z,99982.99
2017-10-12T01:28:40.053Z,99982.75
2017-10-12T01:31:06.298Z,99980.38
2017-10-12T01:33:32.501Z,99981.43
2017-10-12T01:35:58.735Z,99977.31
2017-10-12T01:38:24.987Z,99977.63
2017-10-12T01:40:51.192Z,99979.08
2017-10-12T01:43:17.448Z,99979.75
2017-10-12T01:45:43.657Z,99978.36
2017-10-12T01:48:09.911Z,99982.52
2017-10-12T01:50:36.115Z,99984.02
2017-10-12T01:53:02.356Z,99985.61
2017-10-12T01:55:28.583Z,99986.20
2017-10-12T01:57:54.822Z,99985.89
2017-10-12T02:00:21.149Z,99985.89
2017-10-12T02:02:47.368Z,99983.04
2017-10-12T02:05:13.612Z,99988.81
2017-10-12T02:07:39.820Z,99983.67
2017-10-12T02:10:06.061Z,99979.86
2017-10-12T02:12:32.302Z,99983.48
2017-10-12T02:14:58.520Z,99984.86
2017-10-12T02:17:24.755Z,99981.13
2017-10-12T02:19:50.982Z,99979.94
2017-10-12T02:22:17.305Z,99983.48
2017-10-12T02:24:43.546Z,99982.12
2017-10-12T02:27:09.773Z,99982.38
2017-10-12T02:29:36.110Z,99981.06
2017-10-12T02:32:02.328Z,99990.02
2017-10-12T02:34:28.606Z,99988.02
2017-10-12T02:36:54.899Z,99992.97
2017-10-12T02:39:21.230Z,99991.77
2017-10-12T02:41:47.447Z,99986.40
2017-10-12T02:44:13.685Z,99982.86
2017-10-12T02:46:39.906Z,99981.93
2017-10-12T02:49:06.137Z,99991.00
2017-10-12T02:51:32.492Z,99986.37
2017-10-12T02:53:58.698Z,99992.64
2017-10-12T02:56:24.933Z,99988.42
2017-10-12T02:58:51.273Z,99992.44
2017-10-12T03:01:17.505Z,99996.03
2017-10-12T03:03:43.863Z,99997.72
2017-10-12T03:06:10.192Z,99997.77
2017-10-12T03:08:36.370Z,99994.73
2017-10-12T03:11:02.630Z,99992.07
2017-10-12T03:13:28.845Z,100000.44
2017-10-12T03:15:55.074Z,99991.30
2017-10-12T03:18:21.300Z,99995.76
2017-10-12T03:20:47.536Z,99994.09
2017-10-12T03:23:13.786Z,99993.33
2017-10-12T03:25:40.011Z,99995.12
2017-10-12T03:28:06.240Z,99998.89
2017-10-12T03:30:32.455Z,99993.65
2017-10-12T03:32:58.695Z,99993.23
2017-10-12T03:35:24.925Z,99995.82
2017-10-12T03:37:51.125Z,99994.54
2017-10-12T03:40:17.373Z,100000.63
2017-10-12T03:42:43.619Z,100005.09
2017-10-12T03:45:09.846Z,100003.78
2017-10-12T03:47:36.079Z,100007.25
2017-10-12T03:50:02.405Z,100008.95
2017-10-12T03:52:28.628Z,100005.13
2017-10-12T03:54:54.874Z,100006.64
2017-10-12T03:57:21.204Z,100009.30
2017-10-12T03:59:47.439Z,100005.28
2017-10-12T04:02:13.658Z,100002.34
2017-10-12T04:04:39.889Z,100008.53
2017-10-12T04:07:06.126Z,100007.70
2017-10-12T04:09:32.345Z,100007.81
2017-10-12T04:11:58.560Z,100011.00
2017-10-12T04:14:24.814Z,100011.88
2017-10-12T04:16:51.036Z,100014.09
2017-10-12T04:19:17.276Z,100013.75
2017-10-12T04:21:43.514Z,100008.20
2017-10-12T04:24:09.729Z,100009.03
2017-10-12T04:26:36.063Z,100013.70
2017-10-12T04:29:02.327Z,100016.50
2017-10-12T04:31:28.623Z,100014.08
2017-10-12T04:33:54.852Z,100015.69
2017-10-12T04:36:21.069Z,100018.59
2017-10-12T04:38:47.308Z,100022.78
2017-10-12T04:41:13.659Z,100025.34
2017-10-12T04:43:40.009Z,100022.31
2017-10-12T04:46:06.312Z,100025.64
2017-10-12T04:48:32.548Z,100024.92
2017-10-12T04:50:58.764Z,100031.29
2017-10-12T04:53:24.994Z,100023.78
2017-10-12T04:55:51.214Z,100036.66
2017-10-12T04:58:17.463Z,100030.42
2017-10-12T05:00:43.691Z,100033.78
2017-10-12T05:03:09.917Z,100033.96
2017-10-12T05:05:36.131Z,100032.75
2017-10-12T05:08:02.370Z,100040.13
2017-10-12T05:10:28.611Z,100034.34
2017-10-12T05:12:54.845Z,100037.59
2017-10-12T05:15:21.069Z,100038.91
2017-10-12T05:17:47.275Z,100039.41
2017-10-12T05:20:13.538Z,100041.11
2017-10-12T05:22:39.830Z,100047.45
2017-10-12T05:25:06.088Z,100050.30
2017-10-12T05:27:32.313Z,100057.95
2017-10-12T05:29:58.550Z,100055.19
2017-10-12T05:32:24.777Z,100053.17
2017-10-12T05:34:51.011Z,100053.81
2017-10-12T05:37:17.247Z,100052.30
2017-10-12T05:39:43.560Z,100060.23
2017-10-12T05:42:09.780Z,100052.22
2017-10-12T05:44:36.023Z,100057.20
2017-10-12T05:47:02.365Z,100053.47
2017-10-12T05:49:28.606Z,100055.64
2017-10-12T05:51:54.935Z,100049.34
2017-10-12T05:54:21.148Z,100056.27
2017-10-12T05:56:47.396Z,100056.16
2017-10-12T05:59:13.729Z,100059.41
2017-10-12T06:01:40.075Z,100061.34
2017-10-12T06:04:06.445Z,100066.17
2017-10-12T06:06:32.778Z,100067.06
2017-10-12T06:08:59.035Z,100061.96
2017-10-12T06:11:25.251Z,100058.04
2017-10-12T06:13:51.487Z,100059.65
2017-10-12T06:16:17.834Z,100064.50
2017-10-12T06:18:44.049Z,100058.48
2017-10-12T06:21:10.283Z,100062.36
2017-10-12T06:23:36.510Z,100071.41
2017-10-12T06:26:02.727Z,100065.03
2017-10-12T06:28:28.973Z,100064.43
2017-10-12T06:30:55.216Z,100062.77
2017-10-12T06:33:21.460Z,100077.16
2017-10-12T06:35:48.170Z,100076.11
2017-10-12T06:38:14.502Z,100074.21
2017-10-12T06:40:40.749Z,100069.88
2017-10-12T06:43:06.962Z,100067.42
2017-10-12T06:45:33.165Z,100078.11
2017-10-12T06:47:59.376Z,100063.50
2017-10-12T06:50:25.574Z,100067.33
2017-10-12T06:52:51.781Z,100070.89
2017-10-12T06:55:17.991Z,100070.38
2017-10-12T06:57:44.187Z,100062.00
2017-10-12T07:00:10.394Z,100067.59
2017-10-12T07:02:36.589Z,100066.45
2017-10-12T07:05:02.825Z,100069.33
2017-10-12T07:07:29.025Z,100064.02
2017-10-12T07:09:55.212Z,100061.78
2017-10-12T07:12:21.443Z,100064.83
2017-10-12T07:14:47.631Z,100059.41
2017-10-12T07:17:13.839Z,100060.25
2017-10-12T07:19:40.054Z,100055.29
2017-10-12T07:22:06.253Z,100054.17
2017-10-12T07:24:32.451Z,100057.33
2017-10-12T07:26:58.651Z,100048.12
2017-10-12T07:29:24.853Z,100049.33
2017-10-12T07:31:51.050Z,100052.28
2017-10-12T07:34:17.265Z,100056.52
2017-10-12T07:36:43.508Z,100048.78
2017-10-12T07:39:09.697Z,100049.18
2017-10-12T07:41:35.918Z,100036.89
2017-10-12T07:44:02.123Z,100036.75
2017-10-12T07:46:28.353Z,100035.61
2017-10-12T07:48:54.580Z,100032.94
2017-10-12T07:51:20.810Z,100035.77
2017-10-12T07:53:47.025Z,100028.31
2017-10-12T07:56:13.218Z,100031.86
2017-10-12T07:58:39.428Z,100031.83
2017-10-12T08:01:05.624Z,100025.02
2017-10-12T08:03:31.844Z,100023.41
2017-10-12T08:05:58.061Z,100024.18
2017-10-12T08:08:24.281Z,100017.38
2017-10-12T08:10:50.481Z,100018.18
2017-10-12T08:13:16.693Z,100025.80
2017-10-12T08:15:42.940Z,100023.41
2017-10-12T08:18:09.156Z,100015.30
2017-10-12T08:20:35.372Z,100018.62
2017-10-12T08:23:01.586Z,100018.98
2017-10-12T08:25:27.836Z,100010.70
2017-10-12T08:27:54.027Z,100009.73
2017-10-12T08:30:20.242Z,100007.71
2017-10-12T08:32:46.429Z,100005.92
2017-10-12T08:35:12.649Z,100012.46
2017-10-12T08:37:38.845Z,100007.50
2017-10-12T08:40:05.050Z,99999.00
2017-10-12T08:42:31.263Z,100011.83
2017-10-12T08:44:57.479Z,100000.48
2017-10-12T08:47:23.695Z,99996.63
2017-10-12T08:49:49.892Z,99991.95
2017-10-12T08:52:16.089Z,99990.42
2017-10-12T08:54:42.297Z,99990.44
2017-10-12T08:57:08.518Z,99989.44
2017-10-12T08:59:34.711Z,99992.03
2017-10-12T09:02:00.897Z,99990.14
2017-10-12T09:04:27.104Z,99979.48
2017-10-12T09:06:53.309Z,99977.06
2017-10-12T09:09:19.513Z,99980.09
2017-10-12T09:11:45.714Z,99973.14
2017-10-12T09:14:11.920Z,99977.36
2017-10-12T09:16:38.156Z,99971.70
2017-10-12T09:19:04.355Z,99974.25
2017-10-12T09:21:30.561Z,99969.13
2017-10-12T09:23:56.765Z,99968.53
2017-10-12T09:26:22.973Z,99965.59
2017-10-12T09:28:49.183Z,99969.34
2017-10-12T09:31:15.499Z,99963.36
2017-10-12T09:33:41.710Z,99954.92
2017-10-12T09:36:07.914Z,99947.73
2017-10-12T09:38:34.136Z,99955.48
2017-10-12T09:41:00.333Z,99949.56
2017-10-12T09:43:26.577Z,99950.16
2017-10-12T09:45:52.779Z,99942.13
2017-10-12T09:48:19.071Z,99950.04
2017-10-12T09:50:45.267Z,99947.32
2017-10-12T09:53:11.469Z,99941.19
2017-10-12T09:55:37.686Z,99938.50
2017-10-12T09:58:03.867Z,99938.38
2017-10-12T10:00:30.070Z,99933.78
2017-10-12T10:02:56.252Z,99936.48
2017-10-12T10:05:22.457Z,99937.16
2017-10-12T10:07:48.690Z,99935.01
2017-10-12T10:10:14.880Z,99932.52
2017-10-12T10:12:41.095Z,99923.84
2017-10-12T10:15:07.331Z,99928.04
2017-10-12T10:17:33.534Z,99927.49
2017-10-12T10:19:59.755Z,99927.12
2017-10-12T10:22:25.964Z,99917.37
2017-10-12T10:24:52.189Z,99916.72
2017-10-12T10:27:18.464Z,99917.74
2017-10-12T10:29:44.674Z,99914.38
2017-10-12T10:32:10.863Z,99907.84
2017-10-12T10:34:39.063Z,99906.37
2017-10-12T10:37:05.268Z,99906.09
2017-10-12T10:39:31.473Z,99900.44
2017-10-12T10:41:57.688Z,99902.50
2017-10-12T10:44:24.542Z,99897.38
2017-10-12T10:46:50.730Z,99892.95
2017-10-12T10:49:16.935Z,99890.45
2017-10-12T10:51:43.155Z,99887.51
2017-10-12T10:54:09.367Z,99883.50
2017-10-12T10:56:35.583Z,99892.25
2017-10-12T10:59:01.798Z,99887.67
2017-10-12T11:01:27.997Z,99876.02
2017-10-12T11:03:54.205Z,99880.75
2017-10-12T11:06:20.398Z,99877.72
2017-10-12T11:08:46.623Z,99871.13
2017-10-12T11:11:12.836Z,99876.70
2017-10-12T11:13:39.044Z,99871.97
2017-10-12T11:16:05.242Z,99866.47
2017-10-12T11:18:31.474Z,99870.95
2017-10-12T11:20:57.691Z,99859.80
2017-10-12T11:23:23.874Z,99859.20
2017-10-12T11:25:50.061Z,99862.45
2017-10-12T11:28:16.264Z,99864.22
2017-10-12T11:30:42.466Z,99860.73
2017-10-12T11:33:08.742Z,99856.52
2017-10-12T11:35:34.954Z,99850.78
2017-10-12T11:38:01.166Z,99853.30
2017-10-12T11:40:27.364Z,99850.77
2017-10-12T11:42:53.572Z,99846.39
2017-10-12T11:45:19.767Z,99852.70
2017-10-12T11:47:45.978Z,99842.02
2017-10-12T11:50:12.206Z,99849.38
2017-10-12T11:52:38.419Z,99849.61
2017-10-12T11:55:04.616Z,99840.45
2017-10-12T11:57:30.803Z,99842.63
2017-10-12T11:59:57.009Z,99838.02
2017-10-12T12:02:23.218Z,99838.38
2017-10-12T12:04:49.430Z,99833.20
2017-10-12T12:07:15.638Z,99829.38
2017-10-12T12:09:41.852Z,99835.26
2017-10-12T12:12:08.061Z,99832.21
2017-10-12T12:14:34.256Z,99829.72
2017-10-12T12:17:00.449Z,99824.50
2017-10-12T12:19:26.670Z,99829.51
2017-10-12T12:21:52.873Z,99833.91
2017-10-12T12:24:19.064Z,99831.14
2017-10-12T12:26:45.284Z,99824.45
2017-10-12T12:29:11.492Z,99822.56
2017-10-12T12:31:37.695Z,99821.42
2017-10-12T12:34:03.889Z,99820.52
2017-10-12T12:36:30.105Z,99816.13
2017-10-12T12:38:56.352Z,99810.52
2017-10-12T12:41:22.560Z,99814.61
2017-10-12T12:43:48.772Z,99817.98
2017-10-12T12:46:14.984Z,99814.81
2017-10-12T12:48:41.193Z,99812.17
2017-10-12T12:51:07.397Z,99804.38
2017-10-12T12:53:33.598Z,99802.84
2017-10-12T12:55:59.810Z,99807.47
2017-10-12T12:58:26.019Z,99805.78
2017-10-12T13:00:52.233Z,99800.86
2017-10-12T13:03:18.452Z,99807.55
2017-10-12T13:05:44.661Z,99796.97
2017-10-12T13:08:10.878Z,99795.70
2017-10-12T13:10:37.074Z,99797.45
2017-10-12T13:13:03.281Z,99802.95
2017-10-12T13:15:29.504Z,99795.00
2017-10-12T13:17:55.709Z,99799.05
2017-10-12T13:20:23.069Z,99797.36
2017-10-12T13:22:49.276Z,99800.35
2017-10-12T13:25:15.498Z,99798.31
2017-10-12T13:27:41.697Z,99796.72
2017-10-12T13:30:07.920Z,99793.63
2017-10-12T13:32:34.139Z,99798.30
2017-10-12T13:35:00.336Z,99801.20
2017-10-12T13:37:26.550Z,99801.53
2017-10-12T13:39:52.742Z,99804.33
2017-10-12T13:42:18.943Z,99801.31
2017-10-12T13:44:45.155Z,99802.68
2017-10-12T13:47:11.359Z,99797.32
2017-10-12T13:49:37.628Z,99795.25
2017-10-12T13:52:03.854Z,99794.19
2017-10-12T13:54:30.045Z,99793.54
2017-10-12T13:56:56.271Z,99799.20
2017-10-12T13:59:22.487Z,99798.88
2017-10-12T14:01:48.688Z,99795.89
2017-10-12T14:04:14.933Z,99795.43
2017-10-12T14:06:41.121Z,99791.05
2017-10-12T14:09:07.334Z,99792.72
2017-10-12T14:11:33.550Z,99791.47
2017-10-12T14:13:59.751Z,99794.45
2017-10-12T14:16:25.975Z,99791.16
2017-10-12T14:18:52.216Z,99790.18
2017-10-12T14:21:18.433Z,99790.91
2017-10-12T14:23:44.641Z,99790.09
2017-10-12T14:26:10.893Z,99791.92
2017-10-12T14:28:37.111Z,99790.80
2017-10-12T14:31:03.332Z,99784.38
2017-10-12T14:33:29.580Z,99785.50
2017-10-12T14:35:55.781Z,99791.05
2017-10-12T14:38:21.976Z,99791.12
2017-10-12T14:40:48.213Z,99785.94
2017-10-12T14:43:14.415Z,99780.78
2017-10-12T14:45:40.626Z,99781.61
2017-10-12T14:48:06.851Z,99775.13
2017-10-12T14:50:33.059Z,99785.89
2017-10-12T14:52:59.261Z,99785.18
2017-10-12T14:55:25.478Z,99785.58
2017-10-12T14:57:51.717Z,99785.64
2017-10-12T15:00:17.918Z,99784.16
2017-10-12T15:02:44.170Z,99795.58
2017-10-12T15:05:10.400Z,99790.73
2017-10-12T15:07:36.593Z,99794.69
2017-10-12T15:10:02.903Z,99798.80
2017-10-12T15:12:29.129Z,99800.27
2017-10-12T15:14:55.325Z,99799.19
2017-10-12T15:17:21.545Z,99801.72
2017-10-12T15:19:47.751Z,99800.78
2017-10-12T15:22:14.008Z,99810.99
2017-10-12T15:24:40.213Z,99813.00
2017-10-12T15:27:06.529Z,99812.03
2017-10-12T15:29:32.745Z,99809.18
2017-10-12T15:31:58.962Z,99813.07
2017-10-12T15:34:25.218Z,99816.52
2017-10-12T15:36:51.435Z,99818.55
2017-10-12T15:39:17.667Z,99819.56
2017-10-12T15:41:43.908Z,99822.40
2017-10-12T15:44:10.165Z,99820.01
2017-10-12T15:46:36.396Z,99819.24
2017-10-12T15:49:02.607Z,99821.73
2017-10-12T15:51:28.806Z,99825.55
2017-10-12T15:53:55.047Z,99826.09
2017-10-12T15:56:21.264Z,99825.06
2017-10-12T15:58:47.501Z,99831.00
2017-10-12T16:01:13.697Z,99825.16
2017-10-12T16:03:39.918Z,99827.25
2017-10-12T16:06:06.123Z,99825.27
2017-10-12T16:08:32.351Z,99831.76
2017-10-12T16:10:58.584Z,99831.48
2017-10-12T16:13:24.794Z,99836.27
2017-10-12T16:15:50.962Z,99834.78
2017-10-12T16:18:17.942Z,99839.63
2017-10-12T16:20:44.183Z,99840.38
2017-10-12T16:23:10.490Z,99832.91
2017-10-12T16:25:36.717Z,99838.26
2017-10-12T16:28:02.987Z,99844.44
2017-10-12T16:30:29.172Z,99849.41
2017-10-12T16:33:10.342Z,99848.00
2017-10-12T16:35:21.762Z,99852.81
2017-10-12T16:37:48.000Z,99853.75
2017-10-12T16:40:14.633Z,99853.30
2017-10-12T16:45:07.152Z,99854.55
2017-10-12T16:47:33.426Z,99855.87
2017-10-12T16:49:59.674Z,99853.03
2017-10-12T16:52:26.019Z,99847.03
2017-10-12T16:54:52.311Z,99849.28
2017-10-12T16:57:18.563Z,99854.26
2017-10-12T16:59:44.834Z,99853.80
2017-10-12T17:02:11.353Z,99857.09
2017-10-12T17:04:37.646Z,99853.27
2017-10-12T17:07:03.926Z,99848.76
2017-10-12T17:09:30.157Z,99854.23
2017-10-12T17:11:56.502Z,99855.91
2017-10-12T17:14:22.828Z,99858.02
2017-10-12T17:16:49.101Z,99857.87
2017-10-12T17:19:15.526Z,99864.05
2017-10-12T17:21:42.185Z,99866.11
2017-10-12T17:24:08.450Z,99864.31
2017-10-12T17:26:34.778Z,99862.48
2017-10-12T17:29:01.010Z,99862.77
2017-10-12T17:31:27.293Z,99860.27
2017-10-12T17:33:53.555Z,99859.31
2017-10-12T17:36:19.825Z,99866.05
2017-10-12T17:38:46.094Z,99864.53
2017-10-12T17:41:12.410Z,99858.41
2017-10-12T17:43:38.665Z,99863.48
2017-10-12T17:46:04.964Z,99870.45
2017-10-12T17:48:31.233Z,99870.03
2017-10-12T17:50:57.502Z,99869.66
2017-10-12T17:53:23.806Z,99875.58
2017-10-12T17:55:50.071Z,99875.84
2017-10-12T17:58:16.555Z,99882.34
2017-10-12T18:00:42.785Z,99887.34
2017-10-12T18:03:09.260Z,99884.16
2017-10-12T18:05:35.533Z,99890.89
2017-10-12T18:08:01.762Z,99889.34
2017-10-12T18:10:28.006Z,99888.64
2017-10-12T18:12:54.247Z,99884.88
2017-10-12T18:15:20.494Z,99888.41
2017-10-12T18:17:46.924Z,99894.30
2017-10-12T18:20:13.321Z,99893.30
2017-10-12T18:22:39.798Z,99900.80
2017-10-12T18:25:06.355Z,99899.98
2017-10-12T18:27:32.909Z,99898.95
2017-10-12T18:29:59.545Z,99900.16
2017-10-12T18:32:26.083Z,99902.92
2017-10-12T18:34:52.625Z,99897.85
2017-10-12T18:37:19.243Z,99903.84
2017-10-12T18:42:13.302Z,99905.64
2017-10-12T18:44:39.921Z,99901.83
2017-10-12T18:47:06.413Z,99900.22
2017-10-12T18:49:33.185Z,99905.29
2017-10-12T18:52:07.615Z,99904.22
2017-10-12T18:54:34.365Z,99908.54
2017-10-12T18:57:00.915Z,99904.93
2017-10-12T18:59:27.460Z,99908.48
2017-10-12T19:01:53.912Z,99906.77
2017-10-12T19:04:20.648Z,99912.57
2017-10-12T19:06:47.275Z,99911.90
2017-10-12T19:09:14.628Z,99917.76
2017-10-12T19:11:41.368Z,99915.39
2017-10-12T19:14:08.059Z,99921.17
2017-10-12T19:16:34.629Z,99919.95
2017-10-12T19:19:01.160Z,99914.23
2017-10-12T19:21:27.897Z,99913.60
2017-10-12T19:23:54.363Z,99919.56
2017-10-12T19:26:21.018Z,99920.42
2017-10-12T19:28:48.519Z,99917.27
2017-10-12T19:31:15.003Z,99918.45
2017-10-12T19:33:41.508Z,99925.51
2017-10-12T19:36:08.742Z,99926.98
2017-10-12T19:38:35.214Z,99925.62
2017-10-12T19:43:28.419Z,99922.25
2017-10-12T19:45:55.630Z,99912.59
2017-10-12T19:48:22.010Z,99925.48
2017-10-12T19:50:48.446Z,99924.52
2017-10-12T19:53:15.895Z,99928.19
2017-10-12T19:55:42.268Z,99927.72
2017-10-12T19:58:08.767Z,99927.13
2017-10-12T20:00:35.224Z,99924.95
2017-10-12T20:03:01.726Z,99928.06
2017-10-12T20:05:28.049Z,99922.25
2017-10-12T20:07:54.379Z,99922.11
2017-10-12T20:10:22.879Z,99921.01
2017-10-12T20:12:49.209Z,99917.63
2017-10-12T20:15:15.552Z,99921.32
2017-10-12T20:17:41.944Z,99917.92
2017-10-12T20:20:08.813Z,99918.22
2017-10-12T20:22:35.079Z,99916.78
2017-10-12T20:25:01.392Z,99914.39
2017-10-12T20:27:27.633Z,99913.25
2017-10-12T20:29:53.907Z,99917.58
2017-10-12T20:32:20.193Z,99918.76
2017-10-12T20:34:46.413Z,99916.48
2017-10-12T20:37:12.638Z,99908.80
2017-10-12T20:39:40.655Z,99905.28
2017-10-12T20:42:14.002Z,99911.22
2017-10-12T20:44:34.408Z,99907.80
2017-10-12T20:47:00.679Z,99913.15
2017-10-12T20:49:26.885Z,99906.70
2017-10-12T20:51:53.121Z,99905.55
2017-10-12T20:54:20.062Z,99904.69
2017-10-12T20:56:46.360Z,99904.41
2017-10-12T20:59:12.741Z,99900.23
2017-10-12T21:01:39.022Z,99901.09
2017-10-12T21:04:06.177Z,99904.21
2017-10-12T21:06:33.839Z,99903.48
2017-10-12T21:09:04.381Z,99897.38
2017-10-12T21:11:30.654Z,99903.80
2017-10-12T21:13:59.210Z,99899.69
2017-10-12T21:16:25.467Z,99905.12
2017-10-12T21:18:51.680Z,99900.13
2017-10-12T21:21:18.885Z,99896.13
2017-10-12T21:23:45.152Z,99895.16
2017-10-12T21:26:12.098Z,99898.72
2017-10-12T21:28:38.387Z,99898.56
2017-10-12T21:31:04.638Z,99893.59
2017-10-12T21:33:30.995Z,99888.52
2017-10-12T21:35:57.279Z,99896.95
2017-10-12T21:38:23.517Z,99897.28
2017-10-12T21:40:49.741Z,99891.40
2017-10-12T21:43:15.970Z,99889.31
2017-10-12T21:45:42.250Z,99892.93
2017-10-12T21:48:08.499Z,99890.97
2017-10-12T21:50:34.808Z,99891.66
2017-10-12T21:53:02.215Z,99893.28
2017-10-12T21:55:28.542Z,99892.03
2017-10-12T21:57:54.836Z,99891.26
2017-10-12T22:00:21.249Z,99894.75
2017-10-12T22:02:47.508Z,99890.70
2017-10-12T22:05:13.839Z,99895.05
2017-10-12T22:07:41.071Z,99898.30
2017-10-12T22:10:07.372Z,99892.78
2017-10-12T22:12:33.659Z,99900.22
2017-10-12T22:15:01.124Z,99900.64
2017-10-12T22:17:27.370Z,99899.09
2017-10-12T22:19:53.590Z,99898.28
2017-10-12T22:22:19.867Z,99901.36
2017-10-12T22:24:46.103Z,99899.01
2017-10-12T22:27:12.303Z,99901.56
2017-10-12T22:29:38.508Z,99904.59
2017-10-12T22:32:04.724Z,99910.20
2017-10-12T22:34:30.973Z,99904.69
2017-10-12T22:36:57.207Z,99912.86
2017-10-12T22:39:23.406Z,99910.51
2017-10-12T22:41:49.613Z,99910.94
2017-10-12T22:44:15.837Z,99909.09
2017-10-12T22:46:42.083Z,99907.70
2017-10-12T22:49:08.292Z,99908.11
2017-10-12T22:51:34.490Z,99906.11
2017-10-12T22:54:00.691Z,99905.61
2017-10-12T22:56:26.889Z,99904.56
2017-10-12T22:58:53.127Z,99907.17
2017-10-12T23:01:19.327Z,99908.31
2017-10-12T23:03:45.525Z,99908.08
2017-10-12T23:06:11.754Z,99911.72
2017-10-12T23:08:37.951Z,99912.60
2017-10-12T23:11:04.195Z,99909.63
2017-10-12T23:13:30.410Z,99900.09
2017-10-12T23:15:56.612Z,99907.55
2017-10-12T23:18:22.859Z,99906.75
2017-10-12T23:20:49.082Z,99911.63
2017-10-12T23:23:15.292Z,99906.64
2017-10-12T23:25:41.518Z,99907.28
2017-10-12T23:28:07.724Z,99902.09
2017-10-12T23:30:33.955Z,99906.38
2017-10-12T23:33:00.173Z,99903.94
2017-10-12T23:42:09.917Z,99901.58
2017-10-12T23:44:36.182Z,99900.06
2017-10-12T23:47:02.404Z,99893.09
2017-10-12T23:49:28.624Z,99893.00
2017-10-12T23:51:55.484Z,99894.66
2017-10-12T23:54:21.736Z,99890.28
2017-10-12T23:56:47.974Z,99886.42
2017-10-12T23:59:14.166Z,99890.19
